Terminal Aerodrome Forecast
Issued by NWS

Home | Current Version | Previous Version | Graphics & Text | Print | Product List | Glossary On
Versions: 1 2 3 4 5 6 7 8 9 10 11 12 13 14 15 16 17 18 19
011
FTUS43 KTOP 251544 AAA
TAFFOE
TAF AMD
KFOE 251544Z 2516/2612 36011KT 5SM -RA OVC008
     FM252200 35008KT 5SM -RA OVC020
     FM260100 32004KT P6SM SCT030 BKN050=

USA.gov is the U.S. government's official web portal to all federal, state and local government web resources and services.